Time;durP1;ratioP1;P1;durP2;ratioP2;P2;SDS_P1;SDS_P2;PMS_P1;PMS_P2;Temp;Humidity;BMP_temperature;BMP_pressure;BME280_temperature;BME280_humidity;BME280_pressure;Samples;Min_cycle;Max_cycle;Signal;HPM_P1;HPM_P2
2020/12/07 00:00:41;;;;;;;1.50;1.40;;;19.30;23.70;;;;;;5094183;28;20589;-55
2020/12/07 00:03:06;;;;;;;1.50;1.40;;;19.30;23.70;;;;;;5075942;28;20687;-56
2020/12/07 00:05:33;;;;;;;1.73;1.63;;;19.30;23.70;;;;;;5093637;28;20157;-56
2020/12/07 00:08:00;;;;;;;1.63;1.40;;;19.30;23.70;;;;;;5093939;28;20483;-55
2020/12/07 00:10:26;;;;;;;1.70;1.55;;;19.30;23.70;;;;;;5093728;28;20162;-56
2020/12/07 00:12:51;;;;;;;1.40;1.30;;;19.30;23.70;;;;;;5076147;28;20165;-55
2020/12/07 00:15:17;;;;;;;2.10;1.60;;;19.30;23.70;;;;;;5093927;28;20158;-55
2020/12/07 00:17:43;;;;;;;1.67;1.50;;;19.30;23.70;;;;;;5094123;28;20162;-55
2020/12/07 00:20:08;;;;;;;1.60;1.50;;;19.30;23.70;;;;;;5093218;28;20656;-56
2020/12/07 00:22:34;;;;;;;2.47;1.80;;;19.30;23.70;;;;;;5093996;28;20154;-55
2020/12/07 00:25:00;;;;;;;1.60;1.50;;;19.30;23.70;;;;;;5093706;28;20151;-55
2020/12/07 00:27:34;;;;;;;1.52;1.42;;;19.30;23.70;;;;;;5094027;28;20150;-55
2020/12/07 00:30:02;;;;;;;1.77;1.67;;;19.30;23.70;;;;;;5093736;28;20241;-55
2020/12/07 00:32:27;;;;;;;1.40;1.30;;;19.30;23.70;;;;;;5093893;28;20512;-55
2020/12/07 00:34:54;;;;;;;1.65;1.40;;;19.30;23.70;;;;;;5093326;28;20166;-55
2020/12/07 00:37:21;;;;;;;2.20;1.67;;;19.30;23.70;;;;;;5093724;28;20153;-55
2020/12/07 00:39:47;;;;;;;1.60;1.50;;;19.40;23.80;;;;;;5075198;28;20200;-55
2020/12/07 00:42:13;;;;;;;1.63;1.43;;;19.40;23.80;;;;;;5093805;28;20162;-55
2020/12/07 00:44:40;;;;;;;2.55;1.52;;;19.40;23.80;;;;;;5093715;28;20154;-56
2020/12/07 00:47:07;;;;;;;2.33;1.67;;;19.40;23.80;;;;;;5093852;28;20193;-56
2020/12/07 00:49:33;;;;;;;1.50;1.25;;;19.40;23.80;;;;;;5093505;28;20168;-56
2020/12/07 00:51:59;;;;;;;2.05;1.80;;;19.40;23.80;;;;;;5093377;28;20184;-56
2020/12/07 00:54:25;;;;;;;1.50;1.40;;;19.40;23.80;;;;;;5093582;28;20594;-56
2020/12/07 00:56:55;;;;;;;1.87;1.77;;;19.50;23.80;;;;;;5093664;28;20449;-56
2020/12/07 00:59:21;;;;;;;2.83;1.60;;;19.50;23.80;;;;;;5093540;28;20482;-56
2020/12/07 01:01:48;;;;;;;2.30;2.03;;;19.50;23.80;;;;;;5093359;28;20271;-56
2020/12/07 01:04:13;;;;;;;1.35;1.25;;;19.50;23.90;;;;;;5093549;28;20661;-56
2020/12/07 01:06:39;;;;;;;4.03;1.60;;;19.60;23.90;;;;;;5093170;28;20165;-56
2020/12/07 01:09:05;;;;;;;1.70;1.40;;;19.60;23.80;;;;;;5093453;28;20899;-56
2020/12/07 01:11:31;;;;;;;2.97;1.10;;;19.60;23.70;;;;;;5093489;28;20166;-56
2020/12/07 01:13:56;;;;;;;1.27;1.17;;;19.60;23.60;;;;;;5093539;28;20625;-55
2020/12/07 01:16:23;;;;;;;2.40;1.30;;;19.60;23.60;;;;;;5093398;28;20154;-56
2020/12/07 01:18:49;;;;;;;1.70;1.60;;;19.70;23.60;;;;;;5093380;28;20536;-56
2020/12/07 01:21:15;;;;;;;1.40;1.30;;;19.70;23.60;;;;;;5078442;28;20644;-56
2020/12/07 01:23:42;;;;;;;1.80;1.30;;;19.70;23.40;;;;;;5097128;28;20149;-55
2020/12/07 01:26:09;;;;;;;1.80;1.35;;;19.70;23.40;;;;;;5097088;28;20168;-55
2020/12/07 01:28:35;;;;;;;1.20;1.10;;;19.80;23.40;;;;;;5097184;28;20154;-55
2020/12/07 01:31:01;;;;;;;1.30;1.20;;;19.80;23.40;;;;;;5097097;28;20162;-55
2020/12/07 01:33:26;;;;;;;0.95;0.95;;;19.80;23.40;;;;;;5097154;28;20378;-56
2020/12/07 01:35:52;;;;;;;1.20;1.10;;;19.90;23.30;;;;;;5096562;28;20161;-55
2020/12/07 01:38:17;;;;;;;1.60;1.50;;;19.90;23.30;;;;;;5096728;28;20173;-55
2020/12/07 01:40:43;;;;;;;1.13;1.03;;;19.90;23.30;;;;;;5096813;28;20667;-55
2020/12/07 01:43:09;;;;;;;1.37;1.27;;;19.90;23.20;;;;;;5097022;28;20264;-56
2020/12/07 01:45:34;;;;;;;1.80;1.70;;;20.00;23.20;;;;;;5096855;28;20272;-56
2020/12/07 01:48:00;;;;;;;2.00;1.60;;;20.00;23.20;;;;;;5096919;28;20161;-56
2020/12/07 01:50:27;;;;;;;1.53;1.03;;;20.00;23.20;;;;;;5096142;28;20197;-56
2020/12/07 01:52:53;;;;;;;1.42;1.33;;;20.10;23.20;;;;;;5097096;28;20154;-56
2020/12/07 01:55:19;;;;;;;1.50;1.40;;;20.10;23.10;;;;;;5096485;28;20191;-56
2020/12/07 01:57:45;;;;;;;1.50;1.40;;;20.10;23.10;;;;;;5096740;28;20581;-55
2020/12/07 02:00:10;;;;;;;1.53;1.43;;;20.10;23.10;;;;;;5096341;28;20649;-55
2020/12/07 02:02:37;;;;;;;1.70;1.33;;;20.10;23.10;;;;;;5096368;28;20218;-56
2020/12/07 02:05:03;;;;;;;1.20;1.10;;;20.10;23.00;;;;;;5095915;28;20158;-56
2020/12/07 02:07:28;;;;;;;1.00;0.90;;;20.20;23.00;;;;;;5096372;28;20176;-56
2020/12/07 02:09:54;;;;;;;1.00;1.00;;;20.20;23.00;;;;;;5096269;28;20689;-56
2020/12/07 02:12:20;;;;;;;1.43;1.33;;;20.20;23.00;;;;;;5096413;28;20257;-56
2020/12/07 02:14:45;;;;;;;1.53;1.40;;;20.20;23.00;;;;;;5096130;28;20174;-56
2020/12/07 02:17:11;;;;;;;1.10;1.00;;;20.20;22.90;;;;;;5096184;28;20154;-55
2020/12/07 02:19:37;;;;;;;1.37;1.23;;;20.20;22.90;;;;;;5095403;28;20188;-55
2020/12/07 02:22:02;;;;;;;1.50;1.40;;;20.20;22.90;;;;;;5096060;28;20154;-55
2020/12/07 02:24:28;;;;;;;1.77;1.67;;;20.20;22.90;;;;;;5095936;28;20664;-55
2020/12/07 02:26:53;;;;;;;1.30;1.20;;;20.30;23.00;;;;;;5095925;28;20490;-56
2020/12/07 02:29:26;;;;;;;1.47;1.30;;;20.30;22.90;;;;;;5095857;28;20244;-55
2020/12/07 02:31:53;;;;;;;1.42;1.33;;;20.30;22.90;;;;;;5094605;28;20165;-55
2020/12/07 02:34:19;;;;;;;1.30;1.20;;;20.30;22.90;;;;;;5095755;28;20158;-55
2020/12/07 02:36:44;;;;;;;1.60;1.50;;;20.30;22.90;;;;;;5095017;28;20165;-55
2020/12/07 02:39:10;;;;;;;1.23;1.13;;;20.30;22.90;;;;;;5077381;28;20205;-55
2020/12/07 02:41:39;;;;;;;1.20;1.10;;;20.30;22.90;;;;;;5095518;28;20166;-56
2020/12/07 02:44:04;;;;;;;1.23;1.13;;;20.30;22.90;;;;;;5095632;28;20162;-56
2020/12/07 02:46:30;;;;;;;1.27;1.17;;;20.30;22.90;;;;;;5095387;28;20165;-56
2020/12/07 02:48:55;;;;;;;1.33;1.23;;;20.30;22.90;;;;;;5095275;28;20170;-56
2020/12/07 02:51:21;;;;;;;1.47;1.23;;;20.30;22.80;;;;;;5094962;28;20157;-55
2020/12/07 02:53:47;;;;;;;1.10;1.00;;;20.30;22.90;;;;;;5095689;28;20166;-56
2020/12/07 02:56:13;;;;;;;1.58;1.48;;;20.30;22.80;;;;;;5095271;28;20192;-56
2020/12/07 02:58:38;;;;;;;1.57;1.47;;;20.30;22.80;;;;;;5095466;28;20194;-55
2020/12/07 03:01:04;;;;;;;1.83;1.13;;;20.30;22.80;;;;;;5095135;28;20202;-56
2020/12/07 03:03:29;;;;;;;1.73;1.30;;;20.30;22.80;;;;;;5095300;28;20173;-56
2020/12/07 03:05:55;;;;;;;1.10;1.00;;;20.30;22.80;;;;;;5094857;28;20154;-56
2020/12/07 03:08:20;;;;;;;1.40;1.20;;;20.40;22.90;;;;;;5095331;28;20231;-56
2020/12/07 03:10:46;;;;;;;1.37;1.10;;;20.40;22.90;;;;;;5095015;28;20150;-56
2020/12/07 03:13:12;;;;;;;1.50;1.40;;;20.40;22.90;;;;;;5095119;28;20257;-56
2020/12/07 03:15:37;;;;;;;1.10;0.93;;;20.40;22.80;;;;;;5095008;28;20158;-56
2020/12/07 03:18:03;;;;;;;1.20;1.10;;;20.40;22.90;;;;;;5094986;28;20505;-56
2020/12/07 03:20:28;;;;;;;1.13;1.03;;;20.40;22.80;;;;;;5094275;28;20217;-56
2020/12/07 03:22:54;;;;;;;1.23;1.07;;;20.40;22.90;;;;;;5094980;28;20241;-56
2020/12/07 03:25:19;;;;;;;1.33;1.23;;;20.40;22.90;;;;;;5094659;28;20157;-56
2020/12/07 03:27:45;;;;;;;1.10;1.00;;;20.40;22.90;;;;;;5094863;28;20570;-55
2020/12/07 03:30:11;;;;;;;2.83;0.90;;;20.40;22.90;;;;;;5094636;28;20158;-56
2020/12/07 03:32:36;;;;;;;1.30;1.20;;;20.40;22.90;;;;;;5094513;28;20166;-56
2020/12/07 03:35:02;;;;;;;0.93;0.90;;;20.40;22.90;;;;;;5094044;28;20154;-56
2020/12/07 03:37:28;;;;;;;1.50;1.40;;;20.40;22.90;;;;;;5094571;28;20169;-56
2020/12/07 03:39:53;;;;;;;1.13;1.00;;;20.40;22.90;;;;;;5094288;28;20626;-56
2020/12/07 03:42:19;;;;;;;1.70;1.47;;;20.30;22.80;;;;;;5094119;28;20198;-56
2020/12/07 03:44:44;;;;;;;1.40;1.30;;;20.40;22.90;;;;;;5094474;28;20247;-56
2020/12/07 03:47:10;;;;;;;1.30;1.20;;;20.30;22.90;;;;;;5094320;28;20153;-56
2020/12/07 03:49:36;;;;;;;1.37;0.90;;;20.30;22.80;;;;;;5093931;28;20165;-56
2020/12/07 03:52:01;;;;;;;1.40;1.30;;;20.30;22.80;;;;;;5094538;28;20169;-56
2020/12/07 03:54:27;;;;;;;1.20;1.00;;;20.30;22.90;;;;;;5094500;28;20166;-56
2020/12/07 03:56:52;;;;;;;1.40;1.30;;;20.30;22.90;;;;;;5094308;28;20154;-56
2020/12/07 03:59:18;;;;;;;1.00;0.90;;;20.30;22.90;;;;;;5094329;28;20276;-56
2020/12/07 04:01:43;;;;;;;0.90;0.90;;;20.30;22.90;;;;;;5094070;28;20225;-56
2020/12/07 04:04:13;;;;;;;1.20;1.10;;;20.40;22.90;;;;;;5094198;28;20620;-57
2020/12/07 04:06:41;;;;;;;0.90;0.90;;;20.30;22.90;;;;;;5093761;28;20177;-56
2020/12/07 04:09:07;;;;;;;1.00;0.93;;;20.40;23.00;;;;;;5094372;28;20169;-56
2020/12/07 04:11:33;;;;;;;1.50;1.17;;;20.30;22.90;;;;;;5093985;28;20158;-56
2020/12/07 04:13:59;;;;;;;1.13;1.00;;;20.30;22.90;;;;;;5093984;28;20404;-56
2020/12/07 04:16:28;;;;;;;1.20;1.10;;;20.30;22.90;;;;;;5093976;28;20653;-56
2020/12/07 04:18:54;;;;;;;1.45;1.35;;;20.30;22.90;;;;;;5093947;28;20190;-56
2020/12/07 04:21:19;;;;;;;1.47;1.10;;;20.30;22.90;;;;;;5093374;28;20158;-55
2020/12/07 04:23:45;;;;;;;1.20;0.90;;;20.30;22.90;;;;;;5094102;28;20517;-55
2020/12/07 04:26:11;;;;;;;2.10;1.07;;;20.30;22.90;;;;;;5093919;28;20602;-55
2020/12/07 04:28:39;;;;;;;1.27;1.17;;;20.40;22.90;;;;;;5093949;28;20197;-56
2020/12/07 04:31:05;;;;;;;1.00;0.90;;;20.40;22.90;;;;;;5058943;28;20194;-56
2020/12/07 04:33:30;;;;;;;0.80;0.80;;;20.40;22.90;;;;;;5094212;28;20157;-56
2020/12/07 04:35:56;;;;;;;1.13;1.03;;;20.40;22.90;;;;;;5093211;28;20161;-55
2020/12/07 04:38:22;;;;;;;1.10;1.00;;;20.40;22.90;;;;;;5075601;28;20648;-56
2020/12/07 04:40:48;;;;;;;1.00;0.90;;;20.40;22.90;;;;;;5093504;28;20536;-56
2020/12/07 04:43:16;;;;;;;1.33;0.90;;;20.40;22.90;;;;;;5093771;28;20161;-55
2020/12/07 04:45:42;;;;;;;1.00;0.90;;;20.50;22.90;;;;;;5093651;28;20157;-55
2020/12/07 04:48:08;;;;;;;1.10;0.90;;;20.40;22.80;;;;;;5093674;28;20165;-55
2020/12/07 04:50:37;;;;;;;1.02;0.93;;;20.50;22.90;;;;;;5093067;28;20486;-56
2020/12/07 04:53:03;;;;;;;1.25;1.15;;;20.50;22.80;;;;;;5093466;28;20150;-57
2020/12/07 04:55:28;;;;;;;0.90;0.90;;;20.50;22.80;;;;;;5096148;28;20199;-56
2020/12/07 04:57:55;;;;;;;1.30;1.20;;;20.50;22.80;;;;;;5097912;28;20158;-56
2020/12/07 05:00:23;;;;;;;1.08;0.90;;;20.50;22.80;;;;;;5097537;28;20188;-56
2020/12/07 05:02:54;;;;;;;1.00;0.90;;;20.50;22.80;;;;;;5097564;28;20254;-56
2020/12/07 05:05:20;;;;;;;1.23;1.08;;;20.50;23.30;;;;;;5096969;28;20233;-56
2020/12/07 05:07:51;;;;;;;1.00;0.90;;;20.60;22.80;;;;;;5097635;28;20158;-56
2020/12/07 05:10:27;;;;;;;0.98;0.98;;;20.60;22.80;;;;;;5097478;28;20248;-56
2020/12/07 05:13:01;;;;;;;0.90;0.85;;;20.60;22.80;;;;;;5097900;28;20240;-56
2020/12/07 05:15:27;;;;;;;1.40;0.88;;;20.60;22.70;;;;;;5079066;28;20176;-55
2020/12/07 05:17:57;;;;;;;1.53;1.00;;;20.70;22.70;;;;;;5097679;28;20254;-56
2020/12/07 05:20:24;;;;;;;0.85;0.85;;;20.70;22.70;;;;;;5096955;28;20466;-55
2020/12/07 05:22:50;;;;;;;0.98;0.90;;;20.70;22.70;;;;;;5097347;28;20609;-56
2020/12/07 05:25:17;;;;;;;1.10;1.00;;;20.70;22.60;;;;;;5097024;28;20164;-56
2020/12/07 05:27:46;;;;;;;0.90;0.77;;;20.70;22.60;;;;;;5097588;28;20372;-56
2020/12/07 05:30:30;;;;;;;0.90;0.80;;;20.80;23.20;;;;;;5096918;28;20150;-56
2020/12/07 05:32:57;;;;;;;1.08;0.93;;;20.80;22.60;;;;;;5081914;28;20244;-56
2020/12/07 05:35:22;;;;;;;1.10;1.00;;;20.80;22.50;;;;;;5096509;28;20154;-55
2020/12/07 05:37:48;;;;;;;0.80;0.80;;;20.80;22.50;;;;;;5097105;28;20168;-56
2020/12/07 05:40:14;;;;;;;1.73;0.80;;;20.90;22.50;;;;;;5096628;28;20825;-56
2020/12/07 05:42:43;;;;;;;1.10;0.93;;;20.90;22.50;;;;;;5096985;28;20666;-56
2020/12/07 05:45:11;;;;;;;1.23;0.82;;;20.90;22.50;;;;;;5096652;28;20154;-56
2020/12/07 05:47:40;;;;;;;1.00;0.80;;;20.90;22.40;;;;;;5096915;28;20165;-56
2020/12/07 05:50:09;;;;;;;0.80;0.80;;;21.00;22.50;;;;;;5096107;28;20609;-56
2020/12/07 05:52:52;;;;;;;0.70;0.70;;;21.00;22.50;;;;;;5096870;28;20189;-56
2020/12/07 05:55:20;;;;;;;0.88;0.80;;;21.00;22.40;;;;;;5096609;28;20240;-57
2020/12/07 05:58:04;;;;;;;1.15;1.05;;;21.00;22.30;;;;;;5096590;28;20241;-57
2020/12/07 06:00:31;;;;;;;0.90;0.90;;;21.00;22.30;;;;;;5096371;28;20185;-57
2020/12/07 06:02:59;;;;;;;0.80;0.80;;;21.10;22.30;;;;;;5096385;28;20213;-57
2020/12/07 06:05:25;;;;;;;0.60;0.55;;;21.10;22.30;;;;;;5095814;28;20229;-56
2020/12/07 06:07:56;;;;;;;0.70;0.70;;;21.10;22.30;;;;;;5096494;28;20196;-56
2020/12/07 06:10:26;;;;;;;1.10;1.00;;;21.10;22.20;;;;;;5096112;28;20183;-56
2020/12/07 06:12:54;;;;;;;0.98;0.73;;;21.20;22.30;;;;;;5096178;28;20154;-56
2020/12/07 06:15:20;;;;;;;0.82;0.82;;;21.20;22.30;;;;;;5096020;28;20176;-57
2020/12/07 06:17:48;;;;;;;0.70;0.70;;;21.20;22.20;;;;;;5096147;28;20154;-57
2020/12/07 06:20:36;;;;;;;1.05;0.77;;;;;;;;;;5095511;28;20272;-56
2020/12/07 06:23:02;;;;;;;0.80;0.70;;;21.30;21.70;;;;;;5096137;28;20546;-56
2020/12/07 06:25:32;;;;;;;0.70;0.60;;;21.30;22.10;;;;;;5095850;28;20231;-56
2020/12/07 06:28:02;;;;;;;1.00;0.90;;;21.30;22.10;;;;;;5095851;28;20404;-56
2020/12/07 06:30:34;;;;;;;1.00;0.90;;;21.30;22.10;;;;;;5095955;28;20160;-57
2020/12/07 06:33:05;;;;;;;1.00;0.90;;;21.40;22.10;;;;;;5095905;28;20490;-57
2020/12/07 06:35:30;;;;;;;0.95;0.93;;;21.40;22.10;;;;;;5095050;28;20171;-57
2020/12/07 06:38:01;;;;;;;1.13;0.97;;;21.40;22.00;;;;;;5095838;28;20170;-57
2020/12/07 06:40:29;;;;;;;0.80;0.77;;;21.40;22.00;;;;;;5095496;28;20664;-57
2020/12/07 06:42:55;;;;;;;1.23;1.10;;;21.50;22.00;;;;;;5095508;28;20539;-57
2020/12/07 06:45:30;;;;;;;0.80;0.73;;;21.50;22.00;;;;;;5095406;28;20509;-57
2020/12/07 06:48:05;;;;;;;1.15;0.80;;;21.50;21.90;;;;;;5095569;28;20207;-56
2020/12/07 06:50:35;;;;;;;1.15;0.77;;;21.60;22.00;;;;;;5094933;28;20157;-58
2020/12/07 06:53:01;;;;;;;1.05;0.98;;;21.60;21.90;;;;;;5078435;28;20589;-56
2020/12/07 06:55:27;;;;;;;1.07;0.90;;;21.60;21.90;;;;;;5095339;28;20644;-58
2020/12/07 06:57:53;;;;;;;0.80;0.60;;;21.60;21.90;;;;;;5095352;28;20242;-57
2020/12/07 07:00:21;;;;;;;0.80;0.80;;;21.60;21.90;;;;;;5094906;28;20185;-56
2020/12/07 07:02:51;;;;;;;0.80;0.77;;;21.60;21.80;;;;;;5094969;28;20430;-57
2020/12/07 07:05:21;;;;;;;1.58;0.98;;;21.70;21.90;;;;;;5094571;28;20146;-56
2020/12/07 07:07:47;;;;;;;1.08;0.98;;;21.70;21.80;;;;;;5088927;28;20200;-57
2020/12/07 07:10:15;;;;;;;1.55;0.80;;;21.70;21.80;;;;;;5078600;28;20197;-57
2020/12/07 07:12:42;;;;;;;0.82;0.80;;;21.70;21.80;;;;;;5086604;28;20184;-57
2020/12/07 07:15:09;;;;;;;0.70;0.70;;;21.70;21.70;;;;;;5085488;28;20183;-56
2020/12/07 07:17:43;;;;;;;3.78;2.20;;;21.70;21.70;;;;;;5080569;28;20201;-52
2020/12/07 07:20:14;;;;;;;4.40;3.72;;;21.70;18.90;;;;;;5050939;28;20202;-52
2020/12/07 07:22:45;;;;;;;4.65;4.15;;;19.30;15.10;;;;;;5084096;28;20260;-55
2020/12/07 07:30:21;;;;;;;2.83;2.60;;;18.40;21.40;;;;;;5080855;28;20181;-59
2020/12/07 07:32:49;;;;;;;3.00;2.10;;;18.50;22.00;;;;;;5085212;28;20174;-57
2020/12/07 07:35:21;;;;;;;4.47;2.47;;;18.60;22.30;;;;;;5091153;28;20260;-55
2020/12/07 07:37:47;;;;;;;3.28;2.03;;;18.80;22.50;;;;;;5087718;28;20186;-54
2020/12/07 07:40:13;;;;;;;2.45;1.85;;;18.90;22.50;;;;;;5090775;28;20616;-58
2020/12/07 07:42:53;;;;;;;2.55;1.80;;;19.00;22.70;;;;;;5083828;28;20217;-56
2020/12/07 07:45:20;;;;;;;4.00;1.98;;;19.20;22.70;;;;;;5090040;28;20223;-55
2020/12/07 08:16:28;;;;;;;4.90;2.42;;;20.00;23.10;;;;;;5038743;28;20634;-54
2020/12/07 08:18:57;;;;;;;2.40;1.67;;;20.00;22.80;;;;;;5049201;28;20209;-54
2020/12/07 08:21:31;;;;;;;4.22;1.70;;;20.00;22.60;;;;;;5057611;28;20177;-59
2020/12/07 08:24:05;;;;;;;6.90;2.33;;;20.00;22.60;;;;;;5060744;28;20658;-59
2020/12/07 08:26:31;;;;;;;2.33;1.73;;;20.10;22.80;;;;;;5062554;28;20201;-58
2020/12/07 08:28:58;;;;;;;3.83;1.90;;;20.10;22.90;;;;;;5045072;28;20625;-55
2020/12/07 08:31:23;;;;;;;2.80;1.67;;;20.20;23.00;;;;;;5044591;28;20252;-55
2020/12/07 08:33:57;;;;;;;1.90;1.60;;;20.20;22.70;;;;;;5062138;28;20264;-54
2020/12/07 08:36:23;;;;;;;2.92;1.67;;;20.20;22.60;;;;;;5070204;28;20435;-55
2020/12/07 08:38:50;;;;;;;2.53;1.65;;;20.20;22.60;;;;;;5056170;28;20218;-54
2020/12/07 08:41:25;;;;;;;1.80;1.70;;;20.20;22.70;;;;;;5055296;28;20162;-54
2020/12/07 08:43:59;;;;;;;2.13;1.92;;;20.20;22.90;;;;;;5061603;28;20188;-54
2020/12/07 08:46:29;;;;;;;2.10;1.30;;;20.20;23.10;;;;;;5063941;28;20537;-58
2020/12/07 08:48:56;;;;;;;3.72;1.65;;;20.20;23.20;;;;;;5052043;28;20185;-58
2020/12/07 08:51:25;;;;;;;2.47;1.90;;;20.20;23.00;;;;;;5058186;28;20177;-58
2020/12/07 08:53:51;;;;;;;2.47;2.20;;;20.20;22.90;;;;;;5068583;28;20177;-58
2020/12/07 08:56:17;;;;;;;2.20;1.67;;;20.20;23.00;;;;;;5058231;28;20601;-57
2020/12/07 08:58:45;;;;;;;2.00;1.60;;;20.20;22.80;;;;;;5054112;28;20292;-54
2020/12/07 09:01:12;;;;;;;5.35;1.90;;;20.20;22.80;;;;;;5052672;28;20441;-56
2020/12/07 09:03:41;;;;;;;2.40;2.20;;;20.20;23.10;;;;;;5061673;28;20221;-55
2020/12/07 09:06:12;;;;;;;3.28;2.20;;;20.10;23.20;;;;;;5066412;28;20220;-59
2020/12/07 09:08:39;;;;;;;2.92;1.70;;;20.20;23.40;;;;;;5064029;28;20289;-56
2020/12/07 09:11:10;;;;;;;3.63;1.60;;;20.20;23.50;;;;;;5071422;28;20184;-55
2020/12/07 09:13:39;;;;;;;2.13;1.15;;;20.20;23.60;;;;;;5090785;28;20216;-55
2020/12/07 09:16:05;;;;;;;2.25;1.48;;;20.20;23.50;;;;;;5090368;28;20211;-56
2020/12/07 09:18:31;;;;;;;4.60;1.63;;;20.20;23.50;;;;;;5092242;28;20169;-55
2020/12/07 09:20:57;;;;;;;2.17;1.40;;;20.20;23.50;;;;;;5068597;28;20186;-54
2020/12/07 09:23:24;;;;;;;4.50;1.73;;;20.20;23.50;;;;;;5091127;28;20264;-53
2020/12/07 09:25:51;;;;;;;2.30;1.65;;;20.20;23.40;;;;;;5069854;28;20182;-53
2020/12/07 09:28:17;;;;;;;2.33;1.55;;;20.30;23.40;;;;;;5077596;28;20232;-53
2020/12/07 09:30:43;;;;;;;2.83;1.47;;;20.30;23.30;;;;;;5062675;28;20571;-54
2020/12/07 09:33:10;;;;;;;2.03;1.80;;;20.30;23.40;;;;;;5087559;28;20177;-56
2020/12/07 09:35:36;;;;;;;2.42;1.70;;;20.30;23.60;;;;;;5082268;28;20433;-54
2020/12/07 09:38:01;;;;;;;5.00;1.57;;;20.30;23.60;;;;;;5084999;28;20193;-54
2020/12/07 09:40:27;;;;;;;4.53;1.60;;;20.30;23.40;;;;;;5054245;28;20472;-55
2020/12/07 09:42:53;;;;;;;2.40;2.03;;;20.30;23.40;;;;;;5087021;28;20333;-54
2020/12/07 09:45:19;;;;;;;2.50;1.67;;;20.30;23.50;;;;;;5087645;28;20618;-56
2020/12/07 09:47:45;;;;;;;1.92;1.73;;;20.30;23.70;;;;;;5085916;28;20228;-55
2020/12/07 09:50:12;;;;;;;2.70;1.90;;;20.30;23.80;;;;;;5084021;28;20162;-54
2020/12/07 09:52:37;;;;;;;2.83;1.45;;;20.30;23.90;;;;;;5056032;28;20552;-54
2020/12/07 09:55:04;;;;;;;3.80;1.80;;;20.30;23.90;;;;;;5090359;28;20259;-54
2020/12/07 09:57:30;;;;;;;3.28;1.77;;;20.30;23.90;;;;;;5082785;28;20931;-54
2020/12/07 09:59:56;;;;;;;4.97;1.70;;;20.40;23.90;;;;;;5090160;28;20205;-52
2020/12/07 10:02:26;;;;;;;2.60;1.95;;;20.40;23.90;;;;;;5078948;28;20221;-53
2020/12/07 10:04:52;;;;;;;1.95;1.40;;;20.40;23.90;;;;;;5083321;28;20189;-53
2020/12/07 10:07:18;;;;;;;2.72;1.77;;;20.40;23.80;;;;;;5083893;28;20172;-53
2020/12/07 10:09:45;;;;;;;1.80;1.40;;;20.50;23.90;;;;;;5087536;28;20182;-56
2020/12/07 10:12:11;;;;;;;2.95;1.77;;;20.40;23.80;;;;;;5070543;28;20596;-52
2020/12/07 10:14:36;;;;;;;2.93;1.77;;;20.50;23.90;;;;;;5076175;28;20646;-54
2020/12/07 10:17:02;;;;;;;1.70;1.53;;;20.50;23.90;;;;;;5087044;28;20185;-54
2020/12/07 10:19:29;;;;;;;3.47;2.13;;;20.50;23.90;;;;;;5079232;28;20513;-54
2020/12/07 10:21:55;;;;;;;3.03;1.70;;;20.50;23.90;;;;;;5084915;28;20170;-53
2020/12/07 10:24:22;;;;;;;4.03;1.70;;;20.50;23.90;;;;;;5087568;28;20219;-55
2020/12/07 10:26:48;;;;;;;3.20;1.90;;;20.50;24.00;;;;;;5088204;28;20621;-56
2020/12/07 10:29:14;;;;;;;2.58;1.52;;;20.50;24.10;;;;;;5073932;28;20220;-54
2020/12/07 10:31:40;;;;;;;1.90;1.70;;;20.50;24.00;;;;;;5079471;28;20241;-52
2020/12/07 10:34:06;;;;;;;2.30;1.43;;;20.50;24.00;;;;;;5081657;28;20592;-52
2020/12/07 10:36:31;;;;;;;3.13;1.50;;;20.50;24.00;;;;;;5080184;28;20183;-52
2020/12/07 10:39:00;;;;;;;2.17;1.77;;;20.40;24.00;;;;;;5077515;28;20212;-53
2020/12/07 10:41:27;;;;;;;3.80;1.50;;;20.50;24.10;;;;;;5078071;28;20177;-53
2020/12/07 10:43:53;;;;;;;5.15;1.88;;;20.50;24.10;;;;;;5090611;28;20209;-52
2020/12/07 10:46:18;;;;;;;3.03;1.73;;;20.50;24.10;;;;;;5081119;28;20201;-52
2020/12/07 10:48:44;;;;;;;3.70;1.40;;;20.50;24.10;;;;;;5088232;28;20217;-54
2020/12/07 10:51:14;;;;;;;2.53;1.90;;;20.50;24.00;;;;;;5084203;28;20637;-53
2020/12/07 10:53:40;;;;;;;2.80;1.73;;;20.50;23.80;;;;;;5079220;28;20178;-53
2020/12/07 10:56:10;;;;;;;2.63;1.57;;;20.50;23.70;;;;;;5090667;28;20265;-54
2020/12/07 10:58:38;;;;;;;1.50;1.10;;;20.50;23.60;;;;;;5066277;28;20441;-53
2020/12/07 11:01:04;;;;;;;2.70;1.90;;;20.50;23.60;;;;;;5088008;28;20176;-54
2020/12/07 11:03:30;;;;;;;2.88;1.40;;;20.50;23.70;;;;;;5075104;28;20608;-54
2020/12/07 11:05:56;;;;;;;4.03;1.70;;;20.50;23.80;;;;;;5088477;28;20174;-55
2020/12/07 11:08:32;;;;;;;3.13;1.80;;;20.50;23.80;;;;;;5088992;28;20590;-55
2020/12/07 11:10:58;;;;;;;5.72;2.00;;;20.60;23.80;;;;;;5088554;28;20473;-53
2020/12/07 11:13:31;;;;;;;1.90;1.70;;;20.60;23.80;;;;;;5072075;28;20215;-52
2020/12/07 11:16:02;;;;;;;2.78;1.35;;;20.60;23.80;;;;;;5087824;28;20185;-54
2020/12/07 11:18:35;;;;;;;2.75;1.30;;;20.60;23.90;;;;;;5082759;28;20647;-53
2020/12/07 11:21:01;;;;;;;2.30;1.63;;;20.60;23.90;;;;;;5076378;28;20174;-53
2020/12/07 11:23:27;;;;;;;1.80;1.23;;;20.60;23.90;;;;;;5088899;28;20220;-53
2020/12/07 11:25:53;;;;;;;9.10;1.97;;;20.60;23.80;;;;;;5089796;28;20231;-54
2020/12/07 11:28:18;;;;;;;1.90;1.70;;;20.70;23.90;;;;;;5088213;28;20186;-54
2020/12/07 11:30:44;;;;;;;2.93;1.73;;;20.70;23.80;;;;;;5072405;28;20166;-53
2020/12/07 11:33:10;;;;;;;1.93;1.30;;;20.70;23.90;;;;;;5090286;28;20750;-59
2020/12/07 11:35:35;;;;;;;2.03;1.30;;;20.70;23.80;;;;;;5079965;28;20699;-56
2020/12/07 11:38:14;;;;;;;2.50;1.53;;;20.80;23.90;;;;;;5081819;28;20898;-57
2020/12/07 11:45:58;;;;;;;6.05;1.65;;;20.70;23.90;;;;;;5081896;28;20273;-56
2020/12/07 11:48:23;;;;;;;2.27;2.00;;;20.70;23.80;;;;;;5077755;28;20637;-57
2020/12/07 11:50:49;;;;;;;2.33;1.63;;;20.70;23.60;;;;;;5088112;28;20174;-56
2020/12/07 11:53:15;;;;;;;2.80;1.80;;;20.70;23.80;;;;;;5083090;28;20174;-55
2020/12/07 11:55:40;;;;;;;5.40;1.97;;;20.70;24.60;;;;;;5082139;28;20170;-56
2020/12/07 11:58:06;;;;;;;2.77;1.60;;;20.70;24.50;;;;;;5075179;28;20181;-57
2020/12/07 12:00:32;;;;;;;2.53;1.70;;;20.70;24.60;;;;;;5088864;28;20278;-57
2020/12/07 12:02:57;;;;;;;3.00;1.83;;;20.70;24.70;;;;;;5084050;28;20595;-57
2020/12/07 12:05:23;;;;;;;3.37;1.57;;;20.70;24.60;;;;;;5069121;28;20185;-56
2020/12/07 12:07:48;;;;;;;5.87;1.80;;;20.70;24.60;;;;;;5082247;28;20677;-56
2020/12/07 12:10:14;;;;;;;2.73;2.13;;;20.70;24.60;;;;;;5089115;28;20702;-57
2020/12/07 12:12:40;;;;;;;3.33;1.80;;;20.70;24.60;;;;;;5086980;28;20174;-58
2020/12/07 12:15:05;;;;;;;6.20;2.47;;;20.70;24.50;;;;;;5050382;28;20923;-56
2020/12/07 12:17:31;;;;;;;8.70;1.60;;;20.70;24.60;;;;;;5071956;28;20189;-55
2020/12/07 12:19:57;;;;;;;2.67;1.60;;;20.70;24.60;;;;;;5085164;28;20217;-56
2020/12/07 12:22:25;;;;;;;5.00;2.07;;;20.70;24.60;;;;;;5085725;28;20174;-58
2020/12/07 12:24:51;;;;;;;3.85;1.77;;;20.70;24.60;;;;;;5090527;28;20185;-56
2020/12/07 12:27:18;;;;;;;3.43;1.83;;;20.60;24.60;;;;;;5082204;28;20169;-60
2020/12/07 12:29:43;;;;;;;2.90;1.98;;;20.60;25.10;;;;;;5074328;28;20224;-55
2020/12/07 12:32:09;;;;;;;3.23;1.70;;;20.50;23.90;;;;;;5084149;28;20637;-55
2020/12/07 12:34:34;;;;;;;4.60;2.10;;;20.50;23.40;;;;;;5083402;28;20170;-55
2020/12/07 12:37:00;;;;;;;3.17;1.73;;;20.40;23.30;;;;;;5085115;28;20169;-54
2020/12/07 12:39:26;;;;;;;2.40;2.20;;;20.30;23.00;;;;;;5079136;28;20198;-55
2020/12/07 12:41:51;;;;;;;3.00;1.83;;;20.30;22.90;;;;;;5086634;28;20237;-57
2020/12/07 12:44:18;;;;;;;3.43;2.00;;;20.20;22.60;;;;;;5089718;28;20189;-55
2020/12/07 12:46:43;;;;;;;2.45;1.85;;;20.20;22.50;;;;;;5087357;28;20173;-56
2020/12/07 12:49:09;;;;;;;3.50;1.70;;;20.10;22.30;;;;;;5088517;28;20707;-55
2020/12/07 12:51:35;;;;;;;3.67;1.87;;;20.10;22.20;;;;;;5088465;28;20186;-54
2020/12/07 12:54:04;;;;;;;2.40;1.47;;;20.00;21.90;;;;;;5081693;28;20323;-55
2020/12/07 12:56:29;;;;;;;3.00;1.90;;;20.00;21.80;;;;;;5049245;28;20190;-54
2020/12/07 12:58:55;;;;;;;2.00;1.50;;;20.00;21.70;;;;;;5056105;28;20213;-56
2020/12/07 13:01:21;;;;;;;2.50;1.80;;;20.00;21.60;;;;;;5044913;28;20236;-56
2020/12/07 13:03:47;;;;;;;3.03;2.00;;;20.00;21.70;;;;;;5040972;28;20245;-54
2020/12/07 13:06:12;;;;;;;2.50;1.73;;;20.00;21.70;;;;;;5047679;28;20231;-56
2020/12/07 13:08:38;;;;;;;4.30;1.80;;;20.00;21.70;;;;;;5053993;28;22181;-56
2020/12/07 13:11:04;;;;;;;2.40;1.23;;;20.10;21.60;;;;;;5065030;28;21404;-56
2020/12/07 13:13:35;;;;;;;1.73;1.30;;;20.10;21.50;;;;;;5061050;28;20173;-55
2020/12/07 13:16:06;;;;;;;1.60;1.50;;;20.10;21.50;;;;;;5053387;28;20178;-55
2020/12/07 13:18:45;;;;;;;1.65;1.55;;;20.10;21.50;;;;;;5063155;28;20315;-54
2020/12/07 13:21:22;;;;;;;3.58;1.63;;;20.10;21.70;;;;;;5066113;28;20190;-56
2020/12/07 13:23:57;;;;;;;2.40;1.65;;;20.10;21.50;;;;;;5063450;28;20184;-54
2020/12/07 13:28:48;;;;;;;3.17;1.50;;;20.10;22.00;;;;;;5066296;28;20186;-55